createdAt,value
2019-02-20T00:00:09.055Z,27.50
2019-02-20T00:02:36.251Z,38.87
2019-02-20T00:05:01.774Z,39.17
2019-02-20T00:07:27.003Z,29.60
2019-02-20T00:09:52.227Z,36.43
2019-02-20T00:12:17.487Z,29.77
2019-02-20T00:14:42.775Z,31.17
2019-02-20T00:17:10.070Z,30.63
2019-02-20T00:19:35.458Z,33.63
2019-02-20T00:22:00.781Z,27.23
2019-02-20T00:24:27.212Z,30.70
2019-02-20T00:26:52.770Z,34.40
2019-02-20T00:29:18.150Z,35.07
2019-02-20T00:31:43.342Z,34.17
2019-02-20T00:34:08.908Z,27.90
2019-02-20T00:36:34.167Z,32.00
2019-02-20T00:38:59.479Z,29.90
2019-02-20T00:41:24.815Z,38.60
2019-02-20T00:43:52.056Z,28.57
2019-02-20T00:46:19.513Z,31.50
2019-02-20T00:48:49.843Z,26.50
2019-02-20T00:51:19.752Z,28.73
2019-02-20T00:53:49.688Z,37.10
2019-02-20T00:56:14.863Z,29.50
2019-02-20T00:58:40.144Z,24.83
2019-02-20T01:01:05.403Z,32.70
2019-02-20T01:03:30.689Z,41.63
2019-02-20T01:05:56.022Z,28.70
2019-02-20T01:08:21.439Z,26.30
2019-02-20T01:10:46.683Z,32.73
2019-02-20T01:13:15.175Z,25.27
2019-02-20T01:15:40.468Z,32.37
2019-02-20T01:18:05.797Z,21.27
2019-02-20T01:20:31.000Z,27.53
2019-02-20T01:22:59.842Z,31.50
2019-02-20T01:25:23.740Z,28.93
2019-02-20T01:27:50.058Z,32.77
2019-02-20T01:30:15.959Z,32.80
2019-02-20T01:32:41.127Z,23.93
2019-02-20T01:35:06.793Z,27.97
2019-02-20T01:37:34.027Z,28.43
2019-02-20T01:39:59.242Z,33.17
2019-02-20T01:42:24.471Z,22.20
2019-02-20T01:44:49.651Z,22.00
2019-02-20T01:47:14.833Z,32.60
2019-02-20T01:49:40.108Z,23.03
2019-02-20T01:52:05.385Z,25.23
2019-02-20T01:54:30.598Z,25.37
2019-02-20T01:56:57.222Z,21.17
2019-02-20T01:59:22.624Z,19.93
2019-02-20T02:01:50.142Z,23.10
2019-02-20T02:04:15.597Z,31.17
2019-02-20T02:06:40.830Z,24.17
2019-02-20T02:09:06.090Z,23.20
2019-02-20T02:11:31.992Z,29.53
2019-02-20T02:13:58.580Z,23.27
2019-02-20T02:16:23.772Z,21.40
2019-02-20T02:18:48.967Z,30.50
2019-02-20T02:21:14.151Z,23.00
2019-02-20T02:23:39.308Z,27.47
2019-02-20T02:26:10.716Z,32.00
2019-02-20T02:28:31.648Z,28.63
2019-02-20T02:30:56.829Z,25.73
2019-02-20T02:33:22.094Z,26.77
2019-02-20T02:35:50.344Z,27.07
2019-02-20T02:38:15.587Z,29.43
2019-02-20T02:40:40.802Z,30.37
2019-02-20T02:43:05.979Z,27.73
2019-02-20T02:45:32.166Z,31.27
2019-02-20T02:47:57.608Z,26.63
2019-02-20T02:50:22.857Z,27.13
2019-02-20T02:52:48.087Z,31.97
2019-02-20T02:55:13.302Z,26.20
2019-02-20T02:57:38.452Z,30.90
2019-02-20T03:00:06.718Z,34.97
2019-02-20T03:02:33.786Z,30.67
2019-02-20T03:04:59.186Z,30.83
2019-02-20T03:07:24.685Z,36.53
2019-02-20T03:09:49.906Z,24.60
2019-02-20T03:12:16.114Z,29.70
2019-02-20T03:14:41.352Z,30.40
2019-02-20T03:17:07.533Z,30.00
2019-02-20T03:19:32.804Z,32.90
2019-02-20T03:21:58.056Z,30.73
2019-02-20T03:24:23.287Z,30.67
2019-02-20T03:26:48.468Z,29.07
2019-02-20T03:29:13.655Z,30.13
2019-02-20T03:31:38.836Z,36.60
2019-02-20T03:34:04.327Z,32.33
2019-02-20T03:36:29.498Z,47.43
2019-02-20T03:38:54.687Z,37.60
2019-02-20T03:41:20.118Z,35.00
2019-02-20T03:43:45.281Z,36.03
2019-02-20T03:46:10.800Z,38.13
2019-02-20T03:48:36.536Z,35.60
2019-02-20T03:51:01.839Z,31.20
2019-02-20T03:53:27.015Z,40.50
2019-02-20T03:55:52.692Z,40.97
2019-02-20T03:58:17.861Z,43.23
2019-02-20T04:00:43.438Z,38.57
2019-02-20T04:03:08.629Z,47.60
2019-02-20T04:05:33.970Z,50.40
2019-02-20T04:07:59.132Z,31.73
2019-02-20T04:10:24.352Z,40.53
2019-02-20T04:12:49.631Z,47.50
2019-02-20T04:15:14.876Z,41.50
2019-02-20T04:17:40.119Z,45.13
2019-02-20T04:20:06.436Z,43.60
2019-02-20T04:22:31.610Z,36.27
2019-02-20T04:24:57.110Z,47.13
2019-02-20T04:27:22.373Z,35.27
2019-02-20T04:29:47.531Z,37.40
2019-02-20T04:32:12.690Z,46.20
2019-02-20T04:34:38.060Z,40.23
2019-02-20T04:37:03.246Z,35.87
2019-02-20T04:39:28.411Z,40.30
2019-02-20T04:41:53.721Z,37.73
2019-02-20T04:44:18.886Z,69.07
2019-02-20T04:46:45.340Z,33.23
2019-02-20T04:49:10.578Z,42.33
2019-02-20T04:51:36.017Z,38.17
2019-02-20T04:54:01.200Z,45.93
2019-02-20T04:56:26.367Z,45.70
2019-02-20T04:58:55.053Z,40.50
2019-02-20T05:01:20.366Z,31.53
2019-02-20T05:03:45.546Z,55.00
2019-02-20T05:06:10.703Z,37.97
2019-02-20T05:08:35.927Z,44.20
2019-02-20T05:11:01.090Z,37.73
2019-02-20T05:13:26.295Z,40.03
2019-02-20T05:15:51.497Z,39.47
2019-02-20T05:18:16.726Z,37.77
2019-02-20T05:20:42.891Z,51.50
2019-02-20T05:23:08.065Z,38.07
2019-02-20T05:25:33.347Z,43.50
2019-02-20T05:27:58.535Z,36.37
2019-02-20T05:30:23.836Z,41.43
2019-02-20T05:32:49.052Z,42.40
2019-02-20T05:35:14.213Z,38.83
2019-02-20T05:37:39.759Z,41.23
2019-02-20T05:40:07.272Z,34.40
2019-02-20T05:42:32.557Z,39.83
2019-02-20T05:44:58.150Z,42.03
2019-02-20T05:47:23.485Z,40.67
2019-02-20T05:49:48.750Z,42.03
2019-02-20T05:52:13.929Z,45.70
2019-02-20T05:54:39.089Z,46.07
2019-02-20T05:57:04.282Z,46.20
2019-02-20T05:59:29.702Z,39.20
2019-02-20T06:01:55.008Z,33.90
2019-02-20T06:04:20.287Z,38.57
2019-02-20T06:06:45.482Z,43.77
2019-02-20T06:09:11.398Z,40.77
2019-02-20T06:11:36.778Z,52.57
2019-02-20T06:14:02.244Z,51.33
2019-02-20T06:16:27.454Z,53.40
2019-02-20T06:18:52.656Z,44.30
2019-02-20T06:21:18.904Z,52.87
2019-02-20T06:23:44.086Z,35.30
2019-02-20T06:26:09.340Z,42.00
2019-02-20T06:28:35.186Z,36.97
2019-02-20T06:31:00.513Z,44.63
2019-02-20T06:33:25.739Z,39.63
2019-02-20T06:35:50.978Z,43.03
2019-02-20T06:38:16.530Z,38.73
2019-02-20T06:40:41.780Z,47.40
2019-02-20T06:43:07.014Z,41.07
2019-02-20T06:45:32.191Z,43.27
2019-02-20T06:47:57.402Z,42.03
2019-02-20T06:50:22.610Z,50.17
2019-02-20T06:52:48.038Z,42.60
2019-02-20T06:55:13.225Z,46.30
2019-02-20T06:57:38.511Z,40.37
2019-02-20T07:00:06.699Z,46.63
2019-02-20T07:02:31.920Z,48.87
2019-02-20T07:05:20.556Z,46.90
2019-02-20T07:08:07.891Z,48.70
2019-02-20T07:10:55.634Z,48.83
2019-02-20T07:13:24.709Z,42.90
2019-02-20T07:16:05.762Z,42.87
2019-02-20T07:18:43.651Z,48.67
2019-02-20T07:21:21.570Z,44.37
2019-02-20T07:24:12.997Z,41.33
2019-02-20T07:27:04.377Z,43.87
2019-02-20T07:29:42.783Z,45.50
2019-02-20T07:32:08.851Z,42.97
2019-02-20T07:34:34.056Z,46.50
2019-02-20T07:36:59.301Z,51.53
2019-02-20T07:39:24.588Z,42.83
2019-02-20T07:41:49.987Z,49.63
2019-02-20T07:44:15.191Z,43.57
2019-02-20T07:46:40.423Z,46.90
2019-02-20T07:49:06.765Z,39.67
2019-02-20T07:51:31.980Z,45.60
2019-02-20T07:53:57.427Z,51.80
2019-02-20T07:56:24.081Z,44.33
2019-02-20T07:58:50.021Z,47.53
2019-02-20T08:01:15.574Z,49.37
2019-02-20T08:03:41.196Z,51.33
2019-02-20T08:06:06.848Z,37.87
2019-02-20T08:08:32.396Z,46.23
2019-02-20T08:10:58.343Z,43.80
2019-02-20T08:13:24.044Z,45.10
2019-02-20T08:15:49.975Z,40.70
2019-02-20T08:18:15.170Z,45.60
2019-02-20T08:20:40.474Z,36.83
2019-02-20T08:23:05.656Z,35.03
2019-02-20T08:25:31.207Z,39.80
2019-02-20T08:27:56.368Z,35.53
2019-02-20T08:30:21.600Z,41.50
2019-02-20T08:32:46.904Z,39.83
2019-02-20T08:35:15.149Z,41.70
2019-02-20T08:37:40.308Z,46.40
2019-02-20T08:40:11.644Z,33.30
2019-02-20T08:42:36.948Z,48.07
2019-02-20T08:45:02.244Z,42.40
2019-02-20T08:47:28.757Z,40.67
2019-02-20T08:49:54.419Z,42.57
2019-02-20T08:52:19.908Z,37.63
2019-02-20T08:54:45.283Z,43.87
2019-02-20T08:57:10.608Z,43.83
2019-02-20T08:59:36.002Z,36.73
2019-02-20T09:02:01.426Z,42.43
2019-02-20T09:04:26.781Z,46.43
2019-02-20T09:06:51.951Z,40.93
2019-02-20T09:09:17.152Z,44.83
2019-02-20T09:11:42.594Z,39.40
2019-02-20T09:14:07.879Z,38.37
2019-02-20T09:16:33.081Z,53.30
2019-02-20T09:18:58.282Z,37.20
2019-02-20T09:21:23.586Z,49.00
2019-02-20T09:23:48.751Z,43.57
2019-02-20T09:26:13.963Z,39.53
2019-02-20T09:28:39.204Z,43.10
2019-02-20T09:31:04.437Z,38.87
2019-02-20T09:33:29.628Z,50.50
2019-02-20T09:35:56.414Z,49.43
2019-02-20T09:38:21.967Z,36.77
2019-02-20T09:40:47.177Z,43.40
2019-02-20T09:43:12.549Z,46.97
2019-02-20T09:45:42.002Z,44.57
2019-02-20T09:48:04.833Z,44.10
2019-02-20T09:50:30.006Z,50.17
2019-02-20T09:52:55.332Z,42.00
2019-02-20T09:55:20.878Z,54.00
2019-02-20T09:57:46.042Z,57.43
2019-02-20T10:00:16.335Z,53.07
2019-02-20T10:02:41.680Z,45.63
2019-02-20T10:05:09.333Z,47.30
2019-02-20T10:07:34.565Z,56.27
2019-02-20T10:09:59.797Z,51.33
2019-02-20T10:12:25.158Z,42.60
2019-02-20T10:14:50.346Z,46.70
2019-02-20T10:17:15.639Z,44.83
2019-02-20T10:19:40.837Z,52.03
2019-02-20T10:22:06.034Z,56.50
2019-02-20T10:24:33.708Z,51.20
2019-02-20T10:27:00.906Z,44.87
2019-02-20T10:29:26.207Z,54.80
2019-02-20T10:31:51.423Z,55.10
2019-02-20T10:34:16.799Z,51.40
2019-02-20T10:36:42.354Z,42.10
2019-02-20T10:39:07.924Z,54.07
2019-02-20T10:41:33.129Z,49.03
2019-02-20T10:43:58.718Z,51.50
2019-02-20T10:46:23.926Z,56.43
2019-02-20T10:48:49.203Z,49.80
2019-02-20T10:51:14.371Z,53.20
2019-02-20T10:53:39.549Z,46.53
2019-02-20T10:56:09.374Z,45.30
2019-02-20T10:58:32.135Z,54.60
2019-02-20T11:00:57.320Z,47.80
2019-02-20T11:03:22.571Z,60.33
2019-02-20T11:05:47.970Z,40.93
2019-02-20T11:08:13.203Z,47.67
2019-02-20T11:10:38.841Z,46.33
2019-02-20T11:13:04.020Z,47.63
2019-02-20T11:15:29.687Z,42.83
2019-02-20T11:17:54.880Z,48.33
2019-02-20T11:20:20.079Z,45.87
2019-02-20T11:22:45.339Z,48.17
2019-02-20T11:25:11.536Z,48.00
2019-02-20T11:27:36.702Z,41.57
2019-02-20T11:30:02.583Z,44.70
2019-02-20T11:32:29.685Z,40.40
2019-02-20T11:34:54.842Z,53.90
2019-02-20T11:37:20.033Z,51.07
2019-02-20T11:39:45.224Z,49.93
2019-02-20T11:42:11.575Z,48.73
2019-02-20T11:44:36.751Z,47.50
2019-02-20T11:47:01.986Z,53.23
2019-02-20T11:49:27.172Z,52.73
2019-02-20T11:51:52.415Z,53.43
2019-02-20T11:54:17.590Z,55.70
2019-02-20T11:56:42.760Z,57.23
2019-02-20T11:59:07.956Z,53.40
2019-02-20T12:01:33.544Z,53.30
2019-02-20T12:03:58.727Z,50.80
2019-02-20T12:06:25.123Z,51.37
2019-02-20T12:08:50.471Z,47.50
2019-02-20T12:11:15.632Z,47.20
2019-02-20T12:13:40.814Z,50.67
2019-02-20T12:16:06.001Z,49.60
2019-02-20T12:18:31.284Z,53.67
2019-02-20T12:20:56.480Z,55.90
2019-02-20T12:23:21.693Z,63.23
2019-02-20T12:25:46.966Z,58.30
2019-02-20T12:28:12.207Z,61.97
2019-02-20T12:30:38.113Z,61.17
2019-02-20T12:33:03.551Z,66.53
2019-02-20T12:35:28.764Z,56.77
2019-02-20T12:37:54.163Z,66.33
2019-02-20T12:40:20.126Z,61.40
2019-02-20T12:42:45.883Z,64.30
2019-02-20T12:45:11.716Z,63.23
2019-02-20T12:47:37.005Z,70.60
2019-02-20T12:50:07.133Z,70.77
2019-02-20T12:52:32.507Z,75.50
2019-02-20T12:54:57.809Z,63.73
2019-02-20T12:57:23.338Z,73.70
2019-02-20T12:59:48.651Z,67.90
2019-02-20T13:02:14.374Z,66.07
2019-02-20T13:04:41.775Z,70.23
2019-02-20T13:07:07.094Z,65.20
2019-02-20T13:09:32.479Z,67.67
2019-02-20T13:12:11.364Z,62.30
2019-02-20T13:14:36.717Z,68.07
2019-02-20T13:17:01.960Z,69.53
2019-02-20T13:19:27.288Z,71.13
2019-02-20T13:21:52.823Z,68.13
2019-02-20T13:24:21.035Z,56.83
2019-02-20T13:26:52.872Z,62.37
2019-02-20T13:29:13.694Z,62.97
2019-02-20T13:31:38.883Z,63.53
2019-02-20T13:34:04.105Z,55.07
2019-02-20T13:36:29.752Z,61.40
2019-02-20T13:38:54.909Z,51.63
2019-02-20T13:41:20.424Z,55.93
2019-02-20T13:43:45.885Z,48.70
2019-02-20T13:46:11.055Z,46.07
2019-02-20T13:48:36.266Z,52.70
2019-02-20T13:51:01.605Z,50.77
2019-02-20T13:53:26.873Z,55.10
2019-02-20T13:55:53.712Z,67.43
2019-02-20T13:58:19.224Z,53.17
2019-02-20T14:00:44.760Z,52.23
2019-02-20T14:03:10.181Z,50.73
2019-02-20T14:05:35.602Z,49.73
2019-02-20T14:08:00.791Z,52.00
2019-02-20T14:10:26.339Z,44.70
2019-02-20T14:12:51.979Z,52.70
2019-02-20T14:15:17.597Z,49.20
2019-02-20T14:17:53.059Z,44.73
2019-02-20T14:20:21.377Z,51.53
2019-02-20T14:22:46.683Z,45.83
2019-02-20T14:25:12.014Z,52.43
2019-02-20T14:27:37.293Z,51.13
2019-02-20T14:30:05.563Z,50.70
2019-02-20T14:32:31.098Z,49.67
2019-02-20T14:34:56.357Z,49.60
2019-02-20T14:37:21.724Z,44.50
2019-02-20T14:39:46.906Z,52.43
2019-02-20T14:42:12.423Z,45.13
2019-02-20T14:44:37.869Z,52.07
2019-02-20T14:47:03.028Z,57.73
2019-02-20T14:49:28.387Z,52.17
2019-02-20T14:51:53.620Z,57.57
2019-02-20T14:54:19.097Z,52.20
2019-02-20T14:56:44.875Z,51.13
2019-02-20T14:59:10.394Z,50.77
2019-02-20T15:01:35.806Z,54.90
2019-02-20T15:04:01.111Z,51.33
2019-02-20T15:06:28.322Z,45.93
2019-02-20T15:08:53.707Z,57.50
2019-02-20T15:11:21.581Z,60.50
2019-02-20T15:13:46.843Z,48.23
2019-02-20T15:16:12.152Z,47.40
2019-02-20T15:18:38.847Z,44.77
2019-02-20T15:21:04.193Z,44.37
2019-02-20T15:23:29.506Z,46.13
2019-02-20T15:25:54.820Z,43.63
2019-02-20T15:28:20.205Z,45.73
2019-02-20T15:30:45.476Z,36.10
2019-02-20T15:33:10.689Z,42.50
2019-02-20T15:35:35.857Z,42.13
2019-02-20T15:38:01.477Z,39.63
2019-02-20T15:40:26.923Z,31.17
2019-02-20T15:42:52.169Z,36.20
2019-02-20T15:45:17.493Z,31.20
2019-02-20T15:47:42.774Z,40.63
2019-02-20T15:50:11.131Z,33.07
2019-02-20T15:52:36.359Z,36.10
2019-02-20T15:55:01.637Z,33.50
2019-02-20T15:57:26.964Z,33.33
2019-02-20T15:59:52.135Z,31.33
2019-02-20T16:02:17.644Z,29.90
2019-02-20T16:04:42.966Z,44.57
2019-02-20T16:07:08.182Z,32.43
2019-02-20T16:09:33.391Z,24.17
2019-02-20T16:11:58.675Z,31.53
2019-02-20T16:14:24.425Z,31.70
2019-02-20T16:16:49.663Z,27.93
2019-02-20T16:19:14.873Z,23.90
2019-02-20T16:21:40.185Z,28.17
2019-02-20T16:24:05.449Z,29.70
2019-02-20T16:26:30.740Z,26.97
2019-02-20T16:28:55.958Z,26.63
2019-02-20T16:31:21.138Z,25.77
2019-02-20T16:33:46.455Z,21.30
2019-02-20T16:36:12.740Z,17.13
2019-02-20T16:38:38.220Z,22.13
2019-02-20T16:41:04.741Z,18.17
2019-02-20T16:43:30.679Z,17.60
2019-02-20T16:45:55.939Z,23.13
2019-02-20T16:48:21.229Z,18.80
2019-02-20T16:50:46.455Z,16.50
2019-02-20T16:53:11.793Z,15.10
2019-02-20T16:55:36.949Z,18.63
2019-02-20T16:58:03.928Z,20.70
2019-02-20T17:00:29.466Z,26.20
2019-02-20T17:02:54.973Z,18.43
2019-02-20T17:05:20.339Z,22.37
2019-02-20T17:07:45.710Z,20.20
2019-02-20T17:10:12.085Z,21.37
2019-02-20T17:12:37.267Z,20.00
2019-02-20T17:15:04.084Z,12.80
2019-02-20T17:17:29.346Z,17.50
2019-02-20T17:19:54.928Z,15.60
2019-02-20T17:22:20.406Z,17.80
2019-02-20T17:24:45.690Z,11.00
2019-02-20T17:27:10.861Z,17.80
2019-02-20T17:29:36.974Z,14.53
2019-02-20T17:32:02.978Z,15.87
2019-02-20T17:34:28.256Z,17.03
2019-02-20T17:36:53.519Z,19.43
2019-02-20T17:39:18.770Z,15.97
2019-02-20T17:41:43.986Z,14.27
2019-02-20T17:44:09.192Z,26.70
2019-02-20T17:46:34.773Z,17.80
2019-02-20T17:49:01.006Z,14.57
2019-02-20T17:51:26.288Z,13.90
2019-02-20T17:53:55.372Z,15.30
2019-02-20T17:56:20.575Z,15.43
2019-02-20T17:58:45.745Z,12.50
2019-02-20T18:01:13.252Z,16.03
2019-02-20T18:03:38.754Z,13.43
2019-02-20T18:06:03.975Z,15.07
2019-02-20T18:08:29.152Z,17.20
2019-02-20T18:10:54.359Z,19.00
2019-02-20T18:13:19.798Z,12.63
2019-02-20T18:15:45.134Z,15.97
2019-02-20T18:18:10.425Z,14.17
2019-02-20T18:20:35.724Z,14.87
2019-02-20T18:23:00.955Z,13.63
2019-02-20T18:25:26.433Z,14.53
2019-02-20T18:27:52.821Z,17.80
2019-02-20T18:30:18.081Z,11.63
2019-02-20T18:32:43.363Z,23.73
2019-02-20T18:35:10.037Z,16.17
2019-02-20T18:37:35.260Z,16.83
2019-02-20T18:40:00.544Z,20.27
2019-02-20T18:42:25.732Z,30.47
2019-02-20T18:44:50.960Z,37.40
2019-02-20T18:47:16.102Z,28.23
2019-02-20T18:49:41.396Z,18.73
2019-02-20T18:52:06.813Z,15.23
2019-02-20T18:54:35.225Z,15.60
2019-02-20T18:57:00.618Z,15.80
2019-02-20T18:59:42.140Z,18.17
2019-02-20T19:02:11.676Z,16.43
2019-02-20T19:04:38.060Z,19.27
2019-02-20T19:07:07.949Z,14.00
2019-02-20T19:09:33.251Z,18.90
2019-02-20T19:12:11.051Z,17.23
2019-02-20T19:14:58.423Z,16.10
2019-02-20T19:17:51.845Z,12.90
2019-02-20T19:20:42.185Z,19.50
2019-02-20T19:23:14.415Z,11.13
2019-02-20T19:25:55.141Z,15.00
2019-02-20T19:28:27.414Z,17.03
2019-02-20T19:31:12.935Z,13.90
2019-02-20T19:34:02.817Z,22.10
2019-02-20T19:36:48.487Z,19.13
2019-02-20T19:39:20.533Z,18.47
2019-02-20T19:42:06.471Z,17.87
2019-02-20T19:44:49.356Z,16.47
2019-02-20T19:47:26.961Z,16.47
2019-02-20T19:50:02.251Z,26.27
2019-02-20T19:52:51.687Z,14.87
2019-02-20T19:55:32.546Z,25.93
2019-02-20T19:58:23.273Z,16.60
2019-02-20T20:01:24.348Z,17.93
2019-02-20T20:03:53.691Z,14.07
2019-02-20T20:06:29.881Z,16.00
2019-02-20T20:09:05.405Z,27.13
2019-02-20T20:11:44.693Z,24.43
2019-02-20T20:14:12.722Z,21.70
2019-02-20T20:16:51.222Z,21.20
2019-02-20T20:19:38.530Z,12.43
2019-02-20T20:22:17.441Z,24.97
2019-02-20T20:24:55.617Z,16.43
2019-02-20T20:27:27.875Z,18.33
2019-02-20T20:30:19.890Z,19.33
2019-02-20T20:33:08.305Z,19.63
2019-02-20T20:36:03.469Z,19.10
2019-02-20T20:38:52.206Z,17.67
2019-02-20T20:41:50.083Z,16.97
2019-02-20T20:44:40.220Z,16.50
2019-02-20T20:47:27.163Z,24.40
2019-02-20T20:50:11.368Z,18.20
2019-02-20T20:52:52.837Z,18.20
2019-02-20T20:55:30.871Z,18.53
2019-02-20T20:58:03.886Z,20.43
2019-02-20T21:00:57.129Z,19.70
2019-02-20T21:03:25.205Z,15.07
2019-02-20T21:05:54.258Z,16.07
2019-02-20T21:08:24.416Z,15.70
2019-02-20T21:11:13.757Z,20.07
2019-02-20T21:14:12.170Z,19.80
2019-02-20T21:16:58.624Z,18.33
2019-02-20T21:19:50.785Z,20.50
2019-02-20T21:22:23.107Z,21.27
2019-02-20T21:25:16.379Z,17.43
2019-02-20T21:28:01.821Z,17.43
2019-02-20T21:30:42.903Z,19.47
2019-02-20T21:33:29.631Z,20.80
2019-02-20T21:36:13.467Z,16.30
2019-02-20T21:38:58.413Z,17.73
2019-02-20T21:41:46.932Z,21.40
2019-02-20T21:44:32.542Z,22.47
2019-02-20T21:47:04.569Z,21.57
2019-02-20T21:49:37.040Z,17.80
2019-02-20T21:52:25.923Z,21.67
2019-02-20T21:55:19.314Z,26.10
2019-02-20T21:57:51.074Z,24.50
2019-02-20T22:00:20.967Z,21.20
2019-02-20T22:03:01.892Z,18.20
2019-02-20T22:05:48.651Z,24.93
2019-02-20T22:08:44.106Z,25.90
2019-02-20T22:11:18.431Z,27.67
2019-02-20T22:13:50.647Z,18.90
2019-02-20T22:16:34.680Z,23.73
2019-02-20T22:19:08.972Z,20.80
2019-02-20T22:21:50.215Z,25.10
2019-02-20T22:24:24.971Z,23.33
2019-02-20T22:26:53.931Z,19.47
2019-02-20T22:29:49.811Z,22.17
2019-02-20T22:32:24.177Z,30.40
2019-02-20T22:34:53.122Z,26.20
2019-02-20T22:37:41.687Z,17.90
2019-02-20T22:40:26.053Z,24.03
2019-02-20T22:43:04.349Z,19.77
2019-02-20T22:45:51.683Z,20.33
2019-02-20T22:51:05.115Z,22.83
2019-02-20T22:53:46.654Z,21.87
2019-02-20T22:56:36.798Z,33.30
2019-02-20T22:59:23.674Z,25.13
2019-02-20T23:01:58.879Z,26.83
2019-02-20T23:04:27.879Z,27.00
2019-02-20T23:07:03.088Z,25.20
2019-02-20T23:09:38.345Z,33.20
2019-02-20T23:12:13.471Z,24.03
2019-02-20T23:14:42.724Z,24.87
2019-02-20T23:17:07.952Z,23.93
2019-02-20T23:19:33.217Z,23.10
2019-02-20T23:21:58.398Z,24.50
2019-02-20T23:24:23.560Z,29.13
2019-02-20T23:26:48.817Z,25.77
2019-02-20T23:29:14.222Z,26.30
2019-02-20T23:31:39.382Z,31.20
2019-02-20T23:34:04.634Z,28.53
2019-02-20T23:36:30.064Z,28.83
2019-02-20T23:38:55.209Z,28.00
2019-02-20T23:41:20.356Z,26.63
2019-02-20T23:43:45.552Z,27.73
2019-02-20T23:46:10.710Z,27.87
2019-02-20T23:48:35.859Z,22.97
2019-02-20T23:51:01.053Z,29.10
2019-02-20T23:53:26.295Z,24.77
2019-02-20T23:55:58.304Z,22.60
2019-02-20T23:58:23.481Z,33.73
